createdAt,value
2024-03-30T00:00:55.521Z,97350.67
2024-03-30T00:03:41.466Z,97346.58
2024-03-30T00:06:08.837Z,97344.42
2024-03-30T00:08:36.222Z,97343.66
2024-03-30T00:11:04.626Z,97339.91
2024-03-30T00:13:32.114Z,97340.73
2024-03-30T00:16:07.153Z,97346.78
2024-03-30T00:18:34.765Z,97352.14
2024-03-30T00:21:04.182Z,97346.94
2024-03-30T00:23:34.481Z,97343.11
2024-03-30T00:26:01.816Z,97340.30
2024-03-30T00:28:29.277Z,97329.84
2024-03-30T00:30:56.887Z,97324.29
2024-03-30T00:33:24.478Z,97321.06
2024-03-30T00:35:55.359Z,97318.66
2024-03-30T00:38:22.991Z,97318.04
2024-03-30T00:40:51.460Z,97320.23
2024-03-30T00:43:18.968Z,97318.20
2024-03-30T00:45:46.326Z,97316.89
2024-03-30T00:48:13.773Z,97314.70
2024-03-30T00:50:41.314Z,97314.25
2024-03-30T00:53:08.897Z,97309.79
2024-03-30T00:55:36.397Z,97304.98
2024-03-30T00:58:04.269Z,97300.70
2024-03-30T01:00:31.710Z,97302.86
2024-03-30T01:02:59.330Z,97300.96
2024-03-30T01:05:27.080Z,97296.60
2024-03-30T01:07:54.624Z,97295.21
2024-03-30T01:10:23.991Z,97299.07
2024-03-30T01:12:51.843Z,97304.35
2024-03-30T01:15:20.043Z,97316.97
2024-03-30T01:17:47.862Z,97314.23
2024-03-30T01:20:15.858Z,97317.63
2024-03-30T01:22:43.717Z,97312.80
2024-03-30T01:25:12.026Z,97310.06
2024-03-30T01:27:40.210Z,97312.03
2024-03-30T01:30:10.338Z,97307.70
2024-03-30T01:32:38.231Z,97308.10
2024-03-30T01:35:06.844Z,97307.75
2024-03-30T01:37:34.236Z,97307.93
2024-03-30T01:40:01.650Z,97306.14
2024-03-30T01:42:30.060Z,97305.05
2024-03-30T01:44:57.817Z,97306.94
2024-03-30T01:47:27.230Z,97309.73
2024-03-30T01:49:55.268Z,97313.04
2024-03-30T01:52:22.684Z,97311.98
2024-03-30T01:54:50.467Z,97314.40
2024-03-30T01:57:17.847Z,97316.85
2024-03-30T01:59:45.201Z,97319.97
2024-03-30T02:02:12.609Z,97325.50
2024-03-30T02:04:40.273Z,97329.27
2024-03-30T02:07:08.084Z,97329.52
2024-03-30T02:09:35.625Z,97331.85
2024-03-30T02:12:03.169Z,97325.66
2024-03-30T02:14:30.669Z,97324.20
2024-03-30T02:16:58.388Z,97319.42
2024-03-30T02:19:25.716Z,97319.90
2024-03-30T02:21:55.309Z,97328.97
2024-03-30T02:24:22.647Z,97331.21
2024-03-30T02:26:49.989Z,97334.34
2024-03-30T02:29:17.348Z,97337.66
2024-03-30T02:31:45.072Z,97337.98
2024-03-30T02:34:12.421Z,97338.43
2024-03-30T02:36:39.796Z,97343.62
2024-03-30T02:39:07.447Z,97344.30
2024-03-30T02:41:34.819Z,97345.33
2024-03-30T02:44:02.318Z,97346.86
2024-03-30T02:46:29.703Z,97346.33
2024-03-30T02:48:57.069Z,97342.16
2024-03-30T02:51:24.466Z,97342.33
2024-03-30T02:53:51.855Z,97346.48
2024-03-30T02:56:19.272Z,97343.80
2024-03-30T02:58:46.785Z,97340.06
2024-03-30T03:01:14.219Z,97337.39
2024-03-30T03:03:42.088Z,97338.42
2024-03-30T03:06:09.937Z,97338.60
2024-03-30T03:08:37.331Z,97335.44
2024-03-30T03:11:04.948Z,97333.70
2024-03-30T03:13:32.367Z,97331.60
2024-03-30T03:16:06.322Z,97329.86
2024-03-30T03:18:33.710Z,97329.66
2024-03-30T03:21:01.043Z,97329.46
2024-03-30T03:23:31.913Z,97328.52
2024-03-30T03:25:59.773Z,97326.22
2024-03-30T03:28:27.526Z,97322.54
2024-03-30T03:30:54.899Z,97320.83
2024-03-30T03:33:22.558Z,97319.27
2024-03-30T03:35:50.044Z,97319.14
2024-03-30T03:38:17.544Z,97323.90
2024-03-30T03:40:44.947Z,97327.77
2024-03-30T03:43:12.288Z,97331.83
2024-03-30T03:45:45.227Z,97334.63
2024-03-30T03:48:12.800Z,97334.07
2024-03-30T03:50:41.224Z,97333.70
2024-03-30T03:53:08.974Z,97331.08
2024-03-30T03:55:36.882Z,97336.52
2024-03-30T03:58:04.466Z,97342.31
2024-03-30T04:00:32.903Z,97344.62
2024-03-30T04:03:00.361Z,97346.60
2024-03-30T04:05:27.990Z,97345.77
2024-03-30T04:07:55.335Z,97349.85
2024-03-30T04:10:22.774Z,97349.73
2024-03-30T04:12:50.138Z,97348.38
2024-03-30T04:15:18.106Z,97351.20
2024-03-30T04:17:45.648Z,97348.04
2024-03-30T04:20:13.270Z,97352.05
2024-03-30T04:22:40.599Z,97358.20
2024-03-30T04:25:08.127Z,97359.83
2024-03-30T04:27:35.554Z,97361.61
2024-03-30T04:30:03.159Z,97362.91
2024-03-30T04:32:30.691Z,97365.44
2024-03-30T04:34:58.186Z,97364.30
2024-03-30T04:37:25.586Z,97364.72
2024-03-30T04:39:53.318Z,97367.05
2024-03-30T04:42:20.797Z,97360.66
2024-03-30T04:44:48.186Z,97359.33
2024-03-30T04:47:16.069Z,97359.73
2024-03-30T04:49:43.420Z,97357.80
2024-03-30T04:52:10.810Z,97345.90
2024-03-30T04:54:38.181Z,97342.21
2024-03-30T04:57:06.222Z,97346.05
2024-03-30T04:59:33.595Z,97350.25
2024-03-30T05:02:00.969Z,97356.40
2024-03-30T05:04:28.361Z,97361.15
2024-03-30T05:06:55.731Z,97362.05
2024-03-30T05:09:23.130Z,97359.65
2024-03-30T05:11:50.516Z,97361.95
2024-03-30T05:14:17.896Z,97360.77
2024-03-30T05:16:45.284Z,97365.48
2024-03-30T05:19:31.420Z,97363.39
2024-03-30T05:21:58.808Z,97364.75
2024-03-30T05:24:26.672Z,97368.91
2024-03-30T05:26:54.187Z,97374.12
2024-03-30T05:29:21.582Z,97369.55
2024-03-30T05:31:48.930Z,97373.88
2024-03-30T05:34:16.350Z,97365.63
2024-03-30T05:36:43.797Z,97368.55
2024-03-30T05:39:11.510Z,97368.34
2024-03-30T05:41:38.892Z,97372.14
2024-03-30T05:44:06.640Z,97372.25
2024-03-30T05:46:34.091Z,97378.80
2024-03-30T05:49:01.723Z,97377.11
2024-03-30T05:51:29.133Z,97376.60
2024-03-30T05:53:56.583Z,97374.68
2024-03-30T05:56:24.663Z,97375.08
2024-03-30T05:58:52.170Z,97375.45
2024-03-30T06:01:20.706Z,97373.19
2024-03-30T06:03:48.327Z,97363.77
2024-03-30T06:06:15.748Z,97363.42
2024-03-30T06:08:43.160Z,97361.67
2024-03-30T06:11:10.544Z,97361.64
2024-03-30T06:13:38.022Z,97365.77
2024-03-30T06:16:06.254Z,97358.32
2024-03-30T06:18:33.640Z,97357.87
2024-03-30T06:21:01.040Z,97358.84
2024-03-30T06:23:29.771Z,97357.77
2024-03-30T06:25:57.146Z,97363.71
2024-03-30T06:28:24.524Z,97361.78
2024-03-30T06:30:51.888Z,97364.42
2024-03-30T06:33:19.240Z,97363.75
2024-03-30T06:35:54.453Z,97360.81
2024-03-30T06:38:22.181Z,97366.30
2024-03-30T06:41:08.587Z,97367.56
2024-03-30T06:43:42.159Z,97363.90
2024-03-30T06:46:10.060Z,97366.42
2024-03-30T06:48:37.554Z,97369.30
2024-03-30T06:51:05.710Z,97370.10
2024-03-30T06:53:33.106Z,97368.81
2024-03-30T06:56:00.475Z,97372.35
2024-03-30T06:58:27.917Z,97365.66
2024-03-30T07:00:55.290Z,97374.30
2024-03-30T07:03:22.627Z,97374.70
2024-03-30T07:05:50.085Z,97368.62
2024-03-30T07:08:18.376Z,97372.40
2024-03-30T07:10:45.985Z,97371.94
2024-03-30T07:13:13.339Z,97371.16
2024-03-30T07:15:40.708Z,97373.05
2024-03-30T07:18:08.261Z,97379.12
2024-03-30T07:20:35.604Z,97383.48
2024-03-30T07:23:03.041Z,97381.30
2024-03-30T07:25:30.544Z,97386.20
2024-03-30T07:27:57.940Z,97377.05
2024-03-30T07:30:25.360Z,97382.42
2024-03-30T07:32:52.769Z,97383.73
2024-03-30T07:35:20.132Z,97386.17
2024-03-30T07:37:47.559Z,97379.48
2024-03-30T07:40:15.146Z,97373.86
2024-03-30T07:42:42.508Z,97375.40
2024-03-30T07:45:09.846Z,97382.73
2024-03-30T07:47:39.046Z,97396.57
2024-03-30T07:50:06.631Z,97389.44
2024-03-30T07:52:34.000Z,97384.05
2024-03-30T07:55:01.395Z,97387.63
2024-03-30T07:57:28.896Z,97390.16
2024-03-30T07:59:56.281Z,97390.73
2024-03-30T08:02:23.732Z,97391.34
2024-03-30T08:04:51.911Z,97394.75
2024-03-30T08:07:19.258Z,97397.25
2024-03-30T08:09:46.643Z,97402.92
2024-03-30T08:12:14.026Z,97398.61
2024-03-30T08:14:41.356Z,97396.39
2024-03-30T08:17:08.718Z,97396.15
2024-03-30T08:19:36.068Z,97394.08
2024-03-30T08:22:03.543Z,97388.00
2024-03-30T08:24:32.384Z,97384.23
2024-03-30T08:26:59.929Z,97374.55
2024-03-30T08:29:27.377Z,97374.10
2024-03-30T08:31:55.852Z,97377.16
2024-03-30T08:34:23.243Z,97377.20
2024-03-30T08:36:50.944Z,97382.85
2024-03-30T08:39:18.304Z,97385.16
2024-03-30T08:41:45.686Z,97383.89
2024-03-30T08:44:13.049Z,97384.59
2024-03-30T08:46:40.564Z,97380.31
2024-03-30T08:49:09.776Z,97378.33
2024-03-30T08:51:37.216Z,97376.83
2024-03-30T08:54:07.499Z,97376.60
2024-03-30T08:56:36.108Z,97379.52
2024-03-30T08:59:03.466Z,97371.70
2024-03-30T09:01:30.917Z,97364.52
2024-03-30T09:03:58.278Z,97358.92
2024-03-30T09:06:25.620Z,97359.17
2024-03-30T09:08:53.202Z,97362.55
2024-03-30T09:11:20.572Z,97355.13
2024-03-30T09:13:47.967Z,97360.46
2024-03-30T09:16:15.335Z,97363.95
2024-03-30T09:18:42.703Z,97360.04
2024-03-30T09:21:10.749Z,97365.06
2024-03-30T09:23:38.158Z,97362.89
2024-03-30T09:26:05.516Z,97360.66
2024-03-30T09:28:32.836Z,97360.35
2024-03-30T09:31:00.204Z,97359.35
2024-03-30T09:33:27.536Z,97361.34
2024-03-30T09:35:56.769Z,97357.08
2024-03-30T09:38:24.090Z,97352.11
2024-03-30T09:40:56.168Z,97347.80
2024-03-30T09:43:23.548Z,97339.77
2024-03-30T09:45:51.155Z,97345.43
2024-03-30T09:48:19.849Z,97356.52
2024-03-30T09:50:47.503Z,97350.41
2024-03-30T09:53:14.944Z,97346.78
2024-03-30T09:55:42.389Z,97344.08
2024-03-30T09:58:09.742Z,97341.19
2024-03-30T10:00:37.101Z,97337.86
2024-03-30T10:03:04.892Z,97329.34
2024-03-30T10:05:38.464Z,97329.31
2024-03-30T10:08:08.402Z,97326.11
2024-03-30T10:10:35.753Z,97323.59
2024-03-30T10:13:06.475Z,97329.10
2024-03-30T10:15:36.218Z,97329.77
2024-03-30T10:18:04.149Z,97324.05
2024-03-30T10:20:31.547Z,97313.69
2024-03-30T10:22:58.938Z,97304.64
2024-03-30T10:25:26.539Z,97297.23
2024-03-30T10:27:53.957Z,97295.27
2024-03-30T10:30:21.479Z,97288.44
2024-03-30T10:32:48.848Z,97285.44
2024-03-30T10:35:20.682Z,97286.23
2024-03-30T10:37:48.467Z,97292.77
2024-03-30T10:40:19.142Z,97294.69
2024-03-30T10:42:46.532Z,97299.34
2024-03-30T10:45:13.892Z,97300.84
2024-03-30T10:47:41.292Z,97300.84
2024-03-30T10:50:08.659Z,97302.41
2024-03-30T10:52:38.983Z,97311.73
2024-03-30T10:55:06.721Z,97311.83
2024-03-30T10:57:34.143Z,97304.88
2024-03-30T11:00:04.506Z,97299.64
2024-03-30T11:02:31.972Z,97292.89
2024-03-30T11:04:59.332Z,97300.38
2024-03-30T11:07:40.852Z,97296.97
2024-03-30T11:10:08.320Z,97294.98
2024-03-30T11:12:35.733Z,97292.67
2024-03-30T11:15:03.260Z,97287.05
2024-03-30T11:17:34.464Z,97289.60
2024-03-30T11:20:18.217Z,97281.54
2024-03-30T11:23:04.509Z,97277.10
2024-03-30T11:25:31.949Z,97282.84
2024-03-30T11:28:06.864Z,97276.40
2024-03-30T11:30:49.659Z,97272.98
2024-03-30T11:33:32.928Z,97276.71
2024-03-30T11:36:08.714Z,97270.51
2024-03-30T11:38:41.363Z,97271.77
2024-03-30T11:41:09.360Z,97274.98
2024-03-30T11:43:58.581Z,97276.01
2024-03-30T11:46:26.500Z,97279.90
2024-03-30T11:48:53.857Z,97280.07
2024-03-30T11:51:21.463Z,97274.91
2024-03-30T11:53:48.815Z,97275.34
2024-03-30T11:56:16.216Z,97276.78
2024-03-30T11:58:43.712Z,97279.36
2024-03-30T12:01:13.378Z,97278.66
2024-03-30T12:03:41.245Z,97284.87
2024-03-30T12:06:08.639Z,97275.12
2024-03-30T12:08:40.043Z,97269.48
2024-03-30T12:11:07.932Z,97260.41
2024-03-30T12:13:38.627Z,97263.20
2024-03-30T12:16:06.439Z,97253.57
2024-03-30T12:18:33.800Z,97246.97
2024-03-30T12:21:01.148Z,97239.59
2024-03-30T12:23:29.337Z,97242.11
2024-03-30T12:26:00.163Z,97236.47
2024-03-30T12:28:27.642Z,97232.52
2024-03-30T12:30:55.102Z,97234.58
2024-03-30T12:33:24.074Z,97232.89
2024-03-30T12:35:51.517Z,97233.61
2024-03-30T12:38:20.059Z,97225.80
2024-03-30T12:40:47.572Z,97229.40
2024-03-30T12:43:15.394Z,97233.05
2024-03-30T12:45:43.108Z,97232.75
2024-03-30T12:48:13.420Z,97232.11
2024-03-30T12:50:40.943Z,97234.16
2024-03-30T12:53:08.297Z,97230.25
2024-03-30T12:55:36.066Z,97232.84
2024-03-30T12:58:04.976Z,97225.62
2024-03-30T13:00:32.372Z,97222.77
2024-03-30T13:03:03.484Z,97216.25
2024-03-30T13:05:35.655Z,97216.27
2024-03-30T13:08:03.769Z,97214.68
2024-03-30T13:10:31.931Z,97211.77
2024-03-30T13:12:59.540Z,97205.60
2024-03-30T13:15:26.936Z,97203.14
2024-03-30T13:17:54.573Z,97193.77
2024-03-30T13:20:25.085Z,97192.91
2024-03-30T13:22:52.655Z,97182.17
2024-03-30T13:25:20.045Z,97177.86
2024-03-30T13:27:47.478Z,97174.11
2024-03-30T13:30:16.637Z,97171.84
2024-03-30T13:32:44.688Z,97176.38
2024-03-30T13:35:12.080Z,97173.79
2024-03-30T13:37:45.209Z,97164.20
2024-03-30T13:40:13.130Z,97168.65
2024-03-30T13:42:40.505Z,97163.92
2024-03-30T13:45:08.267Z,97168.44
2024-03-30T13:47:35.859Z,97166.61
2024-03-30T13:50:04.300Z,97164.20
2024-03-30T13:52:31.729Z,97172.13
2024-03-30T13:54:59.108Z,97167.23
2024-03-30T13:57:26.529Z,97172.17
2024-03-30T13:59:54.157Z,97173.80
2024-03-30T14:02:21.507Z,97171.80
2024-03-30T14:04:48.915Z,97169.64
2024-03-30T14:07:16.269Z,97170.05
2024-03-30T14:09:43.867Z,97171.08
2024-03-30T14:12:13.150Z,97169.70
2024-03-30T14:14:40.545Z,97170.96
2024-03-30T14:17:09.287Z,97173.06
2024-03-30T14:19:36.851Z,97173.98
2024-03-30T14:22:04.534Z,97179.73
2024-03-30T14:24:31.969Z,97182.88
2024-03-30T14:27:00.949Z,97180.48
2024-03-30T14:29:29.464Z,97173.02
2024-03-30T14:31:57.018Z,97172.67
2024-03-30T14:34:24.868Z,97172.59
2024-03-30T14:36:52.327Z,97171.24
2024-03-30T14:39:19.700Z,97169.72
2024-03-30T14:41:47.128Z,97156.19
2024-03-30T14:44:14.566Z,97147.52
2024-03-30T14:46:41.972Z,97151.01
2024-03-30T14:49:09.367Z,97148.06
2024-03-30T14:51:36.723Z,97147.95
2024-03-30T14:54:04.130Z,97147.08
2024-03-30T14:56:31.612Z,97145.09
2024-03-30T14:58:58.959Z,97148.36
2024-03-30T15:01:26.311Z,97148.93
2024-03-30T15:03:54.049Z,97147.27
2024-03-30T15:06:26.011Z,97137.61
2024-03-30T15:08:54.707Z,97130.15
2024-03-30T15:11:23.758Z,97129.38
2024-03-30T15:13:51.564Z,97135.69
2024-03-30T15:16:19.151Z,97137.75
2024-03-30T15:18:46.471Z,97133.38
2024-03-30T15:21:13.877Z,97130.52
2024-03-30T15:23:42.541Z,97126.17
2024-03-30T15:26:12.867Z,97121.48
2024-03-30T15:28:40.460Z,97123.21
2024-03-30T15:31:26.678Z,97123.55
2024-03-30T15:33:58.160Z,97123.33
2024-03-30T15:36:26.008Z,97124.97
2024-03-30T15:38:53.426Z,97124.83
2024-03-30T15:41:20.952Z,97131.08
2024-03-30T15:43:48.352Z,97131.16
2024-03-30T15:46:19.426Z,97129.16
2024-03-30T15:48:48.634Z,97130.11
2024-03-30T15:51:16.037Z,97132.65
2024-03-30T15:53:43.555Z,97123.60
2024-03-30T15:56:10.918Z,97129.39
2024-03-30T15:58:38.286Z,97125.29
2024-03-30T16:01:09.228Z,97125.14
2024-03-30T16:03:38.252Z,97122.42
2024-03-30T16:06:06.397Z,97128.73
2024-03-30T16:08:33.792Z,97129.52
2024-03-30T16:11:01.379Z,97113.95
2024-03-30T16:13:30.802Z,97113.08
2024-03-30T16:15:58.753Z,97110.78
2024-03-30T16:18:26.245Z,97113.84
2024-03-30T16:20:57.668Z,97109.95
2024-03-30T16:23:25.489Z,97106.17
2024-03-30T16:25:57.388Z,97110.04
2024-03-30T16:28:24.789Z,97114.19
2024-03-30T16:30:53.464Z,97116.89
2024-03-30T16:33:21.116Z,97123.42
2024-03-30T16:35:48.560Z,97125.81
2024-03-30T16:38:16.350Z,97126.88
2024-03-30T16:40:43.701Z,97137.47
2024-03-30T16:43:11.249Z,97133.09
2024-03-30T16:45:38.955Z,97137.11
2024-03-30T16:48:06.764Z,97139.58
2024-03-30T16:50:34.093Z,97142.09
2024-03-30T16:53:01.662Z,97146.24
2024-03-30T16:55:31.077Z,97149.41
2024-03-30T16:57:58.480Z,97147.99
2024-03-30T17:00:26.218Z,97151.66
2024-03-30T17:02:53.970Z,97152.02
2024-03-30T17:05:21.501Z,97158.82
2024-03-30T17:07:48.839Z,97165.58
2024-03-30T17:10:16.399Z,97159.89
2024-03-30T17:12:46.683Z,97161.98
2024-03-30T17:15:14.288Z,97165.64
2024-03-30T17:17:41.848Z,97167.38
2024-03-30T17:20:09.942Z,97170.36
2024-03-30T17:22:37.319Z,97171.87
2024-03-30T17:25:05.042Z,97176.85
2024-03-30T17:27:33.260Z,97181.41
2024-03-30T17:30:00.632Z,97187.47
2024-03-30T17:32:28.382Z,97183.27
2024-03-30T17:35:01.325Z,97186.57
2024-03-30T17:37:29.002Z,97189.38
2024-03-30T17:39:56.443Z,97197.73
2024-03-30T17:42:23.802Z,97201.33
2024-03-30T17:44:51.730Z,97202.39
2024-03-30T17:47:19.251Z,97208.27
2024-03-30T17:49:46.727Z,97211.44
2024-03-30T17:52:14.391Z,97217.64
2024-03-30T17:54:42.626Z,97220.05
2024-03-30T17:57:09.964Z,97223.16
2024-03-30T17:59:37.389Z,97224.66
2024-03-30T18:02:05.146Z,97229.33
2024-03-30T18:04:32.603Z,97228.70
2024-03-30T18:06:59.931Z,97234.42
2024-03-30T18:09:27.325Z,97237.80
2024-03-30T18:11:54.683Z,97241.02
2024-03-30T18:14:22.343Z,97242.29
2024-03-30T18:16:49.679Z,97233.56
2024-03-30T18:19:17.051Z,97233.73
2024-03-30T18:21:45.094Z,97239.23
2024-03-30T18:24:12.441Z,97246.19
2024-03-30T18:26:44.032Z,97241.61
2024-03-30T18:29:11.678Z,97243.77
2024-03-30T18:31:39.049Z,97246.09
2024-03-30T18:34:06.398Z,97243.64
2024-03-30T18:36:33.831Z,97241.52
2024-03-30T18:39:01.222Z,97244.93
2024-03-30T18:41:28.665Z,97244.95
2024-03-30T18:43:56.116Z,97244.07
2024-03-30T18:46:23.475Z,97231.92
2024-03-30T18:48:50.836Z,97235.20
2024-03-30T18:51:18.241Z,97240.81
2024-03-30T18:53:45.583Z,97240.38
2024-03-30T18:56:13.097Z,97238.84
2024-03-30T18:58:45.552Z,97239.98
2024-03-30T19:01:15.486Z,97239.18
2024-03-30T19:03:44.007Z,97235.01
2024-03-30T19:06:11.374Z,97234.00
2024-03-30T19:08:38.781Z,97242.87
2024-03-30T19:11:06.126Z,97238.98
2024-03-30T19:13:33.910Z,97238.81
2024-03-30T19:16:01.295Z,97235.59
2024-03-30T19:18:28.912Z,97235.89
2024-03-30T19:20:56.359Z,97235.51
2024-03-30T19:23:23.746Z,97231.05
2024-03-30T19:25:51.167Z,97229.95
2024-03-30T19:28:18.583Z,97225.67
2024-03-30T19:30:55.432Z,97223.02
2024-03-30T19:33:22.875Z,97225.17
2024-03-30T19:35:56.862Z,97224.50
2024-03-30T19:38:24.328Z,97225.27
2024-03-30T19:40:51.730Z,97226.01
2024-03-30T19:43:19.282Z,97237.11
2024-03-30T19:45:46.821Z,97232.08
2024-03-30T19:48:14.227Z,97234.08
2024-03-30T19:50:41.602Z,97226.84
2024-03-30T19:53:09.102Z,97231.27
2024-03-30T19:55:36.502Z,97235.80
2024-03-30T19:58:04.150Z,97230.29
2024-03-30T20:00:31.540Z,97232.89
2024-03-30T20:02:59.044Z,97234.43
2024-03-30T20:05:28.012Z,97229.80
2024-03-30T20:07:55.594Z,97228.20
2024-03-30T20:10:23.276Z,97233.45
2024-03-30T20:12:50.688Z,97233.19
2024-03-30T20:15:18.338Z,97231.39
2024-03-30T20:17:46.437Z,97226.77
2024-03-30T20:20:13.911Z,97225.15
2024-03-30T20:22:41.697Z,97220.70
2024-03-30T20:25:09.237Z,97220.87
2024-03-30T20:27:37.260Z,97222.60
2024-03-30T20:30:05.256Z,97221.54
2024-03-30T20:32:33.984Z,97217.11
2024-03-30T20:35:02.529Z,97219.79
2024-03-30T20:37:29.987Z,97219.64
2024-03-30T20:39:57.368Z,97220.73
2024-03-30T20:42:24.740Z,97221.48
2024-03-30T20:44:52.122Z,97227.55
2024-03-30T20:47:20.525Z,97220.73
2024-03-30T20:49:48.196Z,97217.96
2024-03-30T20:52:15.928Z,97218.76
2024-03-30T20:54:43.626Z,97218.86
2024-03-30T20:57:10.995Z,97221.63
2024-03-30T20:59:38.517Z,97220.36
2024-03-30T21:02:05.964Z,97217.15
2024-03-30T21:04:33.366Z,97213.91
2024-03-30T21:07:00.712Z,97210.69
2024-03-30T21:09:29.331Z,97209.80
2024-03-30T21:11:57.553Z,97210.81
2024-03-30T21:14:25.337Z,97213.07
2024-03-30T21:16:52.983Z,97215.30
2024-03-30T21:19:20.397Z,97215.29
2024-03-30T21:21:47.783Z,97211.23
2024-03-30T21:24:15.116Z,97217.20
2024-03-30T21:26:42.449Z,97217.02
2024-03-30T21:29:12.310Z,97217.36
2024-03-30T21:31:40.089Z,97216.34
2024-03-30T21:34:07.428Z,97220.94
2024-03-30T21:36:34.847Z,97217.98
2024-03-30T21:39:02.633Z,97217.81
2024-03-30T21:41:29.970Z,97216.98
2024-03-30T21:43:57.583Z,97219.69
2024-03-30T21:46:24.933Z,97215.36
2024-03-30T21:48:52.548Z,97215.93
2024-03-30T21:51:20.336Z,97220.00
2024-03-30T21:53:47.691Z,97220.72
2024-03-30T21:56:15.111Z,97219.88
2024-03-30T21:58:42.446Z,97217.25
2024-03-30T22:01:09.831Z,97217.47
2024-03-30T22:03:39.027Z,97219.07
2024-03-30T22:06:07.042Z,97221.23
2024-03-30T22:08:34.712Z,97222.32
2024-03-30T22:11:02.079Z,97223.56
2024-03-30T22:13:29.449Z,97210.42
2024-03-30T22:15:56.812Z,97210.96
2024-03-30T22:18:24.467Z,97207.43
2024-03-30T22:20:52.231Z,97209.89
2024-03-30T22:23:20.376Z,97211.50
2024-03-30T22:25:47.724Z,97207.27
2024-03-30T22:28:15.179Z,97208.85
2024-03-30T22:30:42.534Z,97210.77
2024-03-30T22:33:09.949Z,97209.35
2024-03-30T22:35:38.085Z,97215.44
2024-03-30T22:38:05.753Z,97218.67
2024-03-30T22:40:37.294Z,97214.30
2024-03-30T22:43:05.143Z,97217.23
2024-03-30T22:45:35.277Z,97215.79
2024-03-30T22:48:02.705Z,97215.75
2024-03-30T22:50:30.101Z,97213.92
2024-03-30T22:52:57.516Z,97212.27
2024-03-30T22:55:24.919Z,97208.23
2024-03-30T22:57:52.299Z,97208.54
2024-03-30T23:00:22.614Z,97208.52
2024-03-30T23:02:50.242Z,97208.66
2024-03-30T23:05:18.195Z,97206.92
2024-03-30T23:07:45.554Z,97205.16
2024-03-30T23:10:12.964Z,97202.54
2024-03-30T23:12:40.550Z,97203.84
2024-03-30T23:15:08.121Z,97196.37
2024-03-30T23:17:35.605Z,97194.85
2024-03-30T23:20:03.081Z,97186.71
2024-03-30T23:22:30.778Z,97188.96
2024-03-30T23:24:58.126Z,97189.24
2024-03-30T23:27:25.515Z,97191.11
2024-03-30T23:29:52.928Z,97187.17
2024-03-30T23:32:20.309Z,97181.45
2024-03-30T23:34:47.909Z,97178.64
2024-03-30T23:37:15.270Z,97171.05
2024-03-30T23:39:42.598Z,97171.00
2024-03-30T23:42:09.950Z,97162.81
2024-03-30T23:44:37.350Z,97163.25
2024-03-30T23:47:04.740Z,97157.86
2024-03-30T23:49:35.187Z,97151.09
2024-03-30T23:52:02.574Z,97156.27
2024-03-30T23:54:29.951Z,97154.27
2024-03-30T23:56:57.443Z,97151.52
2024-03-30T23:59:24.771Z,97153.37
